createdAt,value
2019-01-13T00:01:20.876Z,4.65
2019-01-13T00:03:48.204Z,5.50
2019-01-13T00:06:15.650Z,4.60
2019-01-13T00:08:42.996Z,4.92
2019-01-13T00:11:10.693Z,5.58
2019-01-13T00:13:38.032Z,4.87
2019-01-13T00:16:05.537Z,4.30
2019-01-13T00:18:32.967Z,4.25
2019-01-13T00:21:00.412Z,6.90
2019-01-13T00:23:27.842Z,6.83
2019-01-13T00:25:55.317Z,6.20
2019-01-13T00:28:22.732Z,5.20
2019-01-13T00:30:50.180Z,6.50
2019-01-13T00:33:17.594Z,5.85
2019-01-13T00:35:44.996Z,7.45
2019-01-13T00:38:12.323Z,5.70
2019-01-13T00:40:39.617Z,6.28
2019-01-13T00:43:06.921Z,6.70
2019-01-13T00:45:34.343Z,7.03
2019-01-13T00:48:01.762Z,7.95
2019-01-13T00:50:29.238Z,6.75
2019-01-13T00:52:56.694Z,7.22
2019-01-13T00:55:24.125Z,7.65
2019-01-13T00:57:51.590Z,8.05
2019-01-13T01:00:26.513Z,6.37
2019-01-13T01:02:50.334Z,6.83
2019-01-13T01:05:17.858Z,6.33
2019-01-13T01:07:47.128Z,6.28
2019-01-13T01:10:15.760Z,6.22
2019-01-13T01:12:43.324Z,6.10
2019-01-13T01:15:10.878Z,6.45
2019-01-13T01:17:38.618Z,5.50
2019-01-13T01:20:07.478Z,5.65
2019-01-13T01:22:34.895Z,5.15
2019-01-13T01:25:02.309Z,5.30
2019-01-13T01:27:29.733Z,5.30
2019-01-13T01:29:57.058Z,4.10
2019-01-13T01:32:24.465Z,4.30
2019-01-13T01:34:51.762Z,3.67
2019-01-13T01:37:19.194Z,3.47
2019-01-13T01:39:46.474Z,3.20
2019-01-13T01:42:13.779Z,3.47
2019-01-13T01:44:41.104Z,3.55
2019-01-13T01:47:08.452Z,3.20
2019-01-13T01:49:35.908Z,3.40
2019-01-13T01:52:03.305Z,3.15
2019-01-13T01:54:30.755Z,2.50
2019-01-13T01:56:58.154Z,3.40
2019-01-13T01:59:25.599Z,3.83
2019-01-13T02:01:53.008Z,2.67
2019-01-13T02:04:20.331Z,2.75
2019-01-13T02:06:48.014Z,3.10
2019-01-13T02:09:15.390Z,3.20
2019-01-13T02:11:42.791Z,2.67
2019-01-13T02:14:10.104Z,3.37
2019-01-13T02:16:37.426Z,3.22
2019-01-13T02:19:04.820Z,3.60
2019-01-13T02:21:32.123Z,3.52
2019-01-13T02:23:59.585Z,3.70
2019-01-13T02:26:26.862Z,3.30
2019-01-13T02:28:54.197Z,3.65
2019-01-13T02:31:21.615Z,3.72
2019-01-13T02:33:49.035Z,3.25
2019-01-13T02:36:16.425Z,3.75
2019-01-13T02:38:43.742Z,4.37
2019-01-13T02:41:11.199Z,3.40
2019-01-13T02:43:38.671Z,4.25
2019-01-13T02:46:06.037Z,3.85
2019-01-13T02:48:33.394Z,4.05
2019-01-13T02:51:01.018Z,3.70
2019-01-13T02:53:28.418Z,2.95
2019-01-13T02:55:55.817Z,2.95
2019-01-13T02:58:23.259Z,4.00
2019-01-13T03:00:57.031Z,2.90
2019-01-13T03:03:20.185Z,3.70
2019-01-13T03:05:47.522Z,4.10
2019-01-13T03:08:14.944Z,4.95
2019-01-13T03:10:42.333Z,5.05
2019-01-13T03:13:09.615Z,4.87
2019-01-13T03:15:36.925Z,4.47
2019-01-13T03:18:04.370Z,4.78
2019-01-13T03:20:31.700Z,5.72
2019-01-13T03:22:59.109Z,4.72
2019-01-13T03:25:26.522Z,4.00
2019-01-13T03:27:53.959Z,4.67
2019-01-13T03:30:23.231Z,4.35
2019-01-13T03:32:50.629Z,4.90
2019-01-13T03:35:18.450Z,4.53
2019-01-13T03:37:45.930Z,5.25
2019-01-13T03:40:21.271Z,5.95
2019-01-13T03:42:48.669Z,5.65
2019-01-13T03:45:15.958Z,6.55
2019-01-13T03:47:43.369Z,5.87
2019-01-13T03:50:13.395Z,5.60
2019-01-13T03:52:40.905Z,6.58
2019-01-13T03:55:08.695Z,7.28
2019-01-13T03:57:36.017Z,6.85
2019-01-13T04:00:06.302Z,6.12
2019-01-13T04:02:33.648Z,6.65
2019-01-13T04:05:01.014Z,5.37
2019-01-13T04:07:28.319Z,5.20
2019-01-13T04:09:55.626Z,6.15
2019-01-13T04:12:23.035Z,5.55
2019-01-13T04:14:50.428Z,7.25
2019-01-13T04:17:18.651Z,5.83
2019-01-13T04:19:45.943Z,6.40
2019-01-13T04:22:13.326Z,6.17
2019-01-13T04:24:41.031Z,6.47
2019-01-13T04:27:08.457Z,6.62
2019-01-13T04:29:35.860Z,7.03
2019-01-13T04:32:03.486Z,6.08
2019-01-13T04:34:30.868Z,6.20
2019-01-13T04:36:58.199Z,6.55
2019-01-13T04:39:25.585Z,6.55
2019-01-13T04:41:53.413Z,6.60
2019-01-13T04:44:20.802Z,6.05
2019-01-13T04:46:48.114Z,6.40
2019-01-13T04:49:15.521Z,6.90
2019-01-13T04:51:42.950Z,7.10
2019-01-13T04:54:10.347Z,7.22
2019-01-13T04:56:37.762Z,6.20
2019-01-13T04:59:05.064Z,6.58
2019-01-13T05:01:34.823Z,6.17
2019-01-13T05:04:01.582Z,6.05
2019-01-13T05:06:28.876Z,5.92
2019-01-13T05:08:56.198Z,5.75
2019-01-13T05:11:23.610Z,5.83
2019-01-13T05:13:50.998Z,5.80
2019-01-13T05:16:18.388Z,5.47
2019-01-13T05:18:45.821Z,6.42
2019-01-13T05:21:13.150Z,5.72
2019-01-13T05:23:40.544Z,6.53
2019-01-13T05:26:07.950Z,5.37
2019-01-13T05:28:35.380Z,5.17
2019-01-13T05:31:02.811Z,5.67
2019-01-13T05:33:30.216Z,5.40
2019-01-13T05:35:57.605Z,5.90
2019-01-13T05:38:24.935Z,5.83
2019-01-13T05:40:52.329Z,5.87
2019-01-13T05:43:19.760Z,5.90
2019-01-13T05:45:47.177Z,6.90
2019-01-13T05:48:14.491Z,6.95
2019-01-13T05:50:41.823Z,7.35
2019-01-13T05:53:09.224Z,7.47
2019-01-13T05:55:36.854Z,7.55
2019-01-13T05:58:04.242Z,7.15
2019-01-13T06:00:35.240Z,8.33
2019-01-13T06:03:02.635Z,7.08
2019-01-13T06:05:30.020Z,6.95
2019-01-13T06:07:57.433Z,6.35
2019-01-13T06:10:24.861Z,6.92
2019-01-13T06:12:52.245Z,5.58
2019-01-13T06:15:23.760Z,6.15
2019-01-13T06:17:51.052Z,6.70
2019-01-13T06:20:20.258Z,6.70
2019-01-13T06:22:47.571Z,6.50
2019-01-13T06:25:14.924Z,6.75
2019-01-13T06:27:42.314Z,6.72
2019-01-13T06:30:12.658Z,5.85
2019-01-13T06:32:39.948Z,6.25
2019-01-13T06:35:07.292Z,5.33
2019-01-13T06:37:34.652Z,5.78
2019-01-13T06:40:01.944Z,5.75
2019-01-13T06:42:29.268Z,5.08
2019-01-13T06:44:56.578Z,5.30
2019-01-13T06:47:23.964Z,5.62
2019-01-13T06:49:51.175Z,5.33
2019-01-13T06:52:18.519Z,5.60
2019-01-13T06:54:45.933Z,5.95
2019-01-13T06:57:13.261Z,5.40
2019-01-13T06:59:40.661Z,4.67
2019-01-13T07:02:08.466Z,5.28
2019-01-13T07:04:35.870Z,5.47
2019-01-13T07:07:03.223Z,5.42
2019-01-13T07:09:30.605Z,5.70
2019-01-13T07:11:57.949Z,6.50
2019-01-13T07:14:25.333Z,6.05
2019-01-13T07:16:52.682Z,5.42
2019-01-13T07:19:20.086Z,5.05
2019-01-13T07:21:47.535Z,7.20
2019-01-13T07:24:14.916Z,5.20
2019-01-13T07:26:42.321Z,5.70
2019-01-13T07:29:09.641Z,4.53
2019-01-13T07:31:37.011Z,6.12
2019-01-13T07:34:04.419Z,5.33
2019-01-13T07:36:31.807Z,8.83
2019-01-13T07:38:59.539Z,4.70
2019-01-13T07:41:27.279Z,4.35
2019-01-13T07:43:54.649Z,4.85
2019-01-13T07:46:21.989Z,5.25
2019-01-13T07:48:49.306Z,5.22
2019-01-13T07:51:16.721Z,5.92
2019-01-13T07:53:44.431Z,5.25
2019-01-13T07:56:11.757Z,4.95
2019-01-13T07:58:39.166Z,5.90
2019-01-13T08:01:06.606Z,4.60
2019-01-13T08:03:34.035Z,5.05
2019-01-13T08:06:01.493Z,4.97
2019-01-13T08:08:28.926Z,4.42
2019-01-13T08:10:56.335Z,4.12
2019-01-13T08:13:23.792Z,4.90
2019-01-13T08:15:51.246Z,3.55
2019-01-13T08:18:18.718Z,5.50
2019-01-13T08:20:46.159Z,4.30
2019-01-13T08:23:16.080Z,4.78
2019-01-13T08:25:44.446Z,5.67
2019-01-13T08:28:11.883Z,7.12
2019-01-13T08:30:39.315Z,8.25
2019-01-13T08:33:09.816Z,7.37
2019-01-13T08:35:37.578Z,9.63
2019-01-13T08:38:05.054Z,9.30
2019-01-13T08:40:32.784Z,8.63
2019-01-13T08:43:00.218Z,5.40
2019-01-13T08:45:27.676Z,7.10
2019-01-13T08:47:55.113Z,6.78
2019-01-13T08:50:23.521Z,6.10
2019-01-13T08:52:50.903Z,6.22
2019-01-13T08:55:18.484Z,5.72
2019-01-13T08:57:45.946Z,4.92
2019-01-13T09:00:32.762Z,6.20
2019-01-13T09:03:00.903Z,6.12
2019-01-13T09:05:28.330Z,7.12
2019-01-13T09:07:55.792Z,26.33
2019-01-13T09:10:23.295Z,7.70
2019-01-13T09:12:56.649Z,6.95
2019-01-13T09:15:22.097Z,6.83
2019-01-13T09:17:49.540Z,6.15
2019-01-13T09:20:27.954Z,5.85
2019-01-13T09:22:56.993Z,6.05
2019-01-13T09:25:26.568Z,6.53
2019-01-13T09:27:54.116Z,5.50
2019-01-13T09:30:26.074Z,7.03
2019-01-13T09:32:53.563Z,6.80
2019-01-13T09:35:21.304Z,6.85
2019-01-13T09:37:48.839Z,8.38
2019-01-13T09:40:19.237Z,8.65
2019-01-13T09:42:46.699Z,6.62
2019-01-13T09:45:14.269Z,7.05
2019-01-13T09:47:41.964Z,7.22
2019-01-13T09:50:11.457Z,6.55
2019-01-13T09:52:38.955Z,5.70
2019-01-13T09:55:08.048Z,6.28
2019-01-13T09:57:35.925Z,5.45
2019-01-13T10:00:06.033Z,5.62
2019-01-13T10:02:33.482Z,5.37
2019-01-13T10:05:00.961Z,4.10
2019-01-13T10:07:28.429Z,5.20
2019-01-13T10:09:55.858Z,5.70
2019-01-13T10:12:23.363Z,5.30
2019-01-13T10:14:50.886Z,3.52
2019-01-13T10:17:18.397Z,3.77
2019-01-13T10:19:45.823Z,3.92
2019-01-13T10:22:13.394Z,3.20
2019-01-13T10:24:40.840Z,3.20
2019-01-13T10:27:08.360Z,2.85
2019-01-13T10:29:35.816Z,3.35
2019-01-13T10:32:03.487Z,3.30
2019-01-13T10:34:30.902Z,3.02
2019-01-13T10:36:58.363Z,3.22
2019-01-13T10:39:25.877Z,2.80
2019-01-13T10:41:53.769Z,2.12
2019-01-13T10:44:21.194Z,2.25
2019-01-13T10:46:48.999Z,2.05
2019-01-13T10:49:17.137Z,2.22
2019-01-13T10:51:44.599Z,2.20
2019-01-13T10:54:12.376Z,1.90
2019-01-13T10:56:39.834Z,2.30
2019-01-13T10:59:07.263Z,2.95
2019-01-13T11:01:34.717Z,2.30
2019-01-13T11:04:02.112Z,1.70
2019-01-13T11:06:29.659Z,2.55
2019-01-13T11:08:57.380Z,2.27
2019-01-13T11:11:24.894Z,2.42
2019-01-13T11:13:52.355Z,2.45
2019-01-13T11:16:19.717Z,3.95
2019-01-13T11:18:47.159Z,1.80
2019-01-13T11:21:14.606Z,2.20
2019-01-13T11:23:43.850Z,2.02
2019-01-13T11:26:11.300Z,1.80
2019-01-13T11:28:39.089Z,1.62
2019-01-13T11:31:06.691Z,2.27
2019-01-13T11:33:34.163Z,1.92
2019-01-13T11:36:02.118Z,2.40
2019-01-13T11:38:29.666Z,2.20
2019-01-13T11:40:57.159Z,2.72
2019-01-13T11:43:25.232Z,2.05
2019-01-13T11:45:52.710Z,2.75
2019-01-13T11:48:22.564Z,4.45
2019-01-13T11:50:49.932Z,3.02
2019-01-13T11:53:17.526Z,2.92
2019-01-13T11:55:45.054Z,2.83
2019-01-13T11:58:15.741Z,1.90
2019-01-13T12:00:44.948Z,2.10
2019-01-13T12:03:16.999Z,2.42
2019-01-13T12:05:43.211Z,2.37
2019-01-13T12:08:10.625Z,1.90
2019-01-13T12:10:39.020Z,2.00
2019-01-13T12:13:07.336Z,1.70
2019-01-13T12:15:35.430Z,2.10
2019-01-13T12:18:03.099Z,1.80
2019-01-13T12:20:30.501Z,2.25
2019-01-13T12:22:58.061Z,1.72
2019-01-13T12:25:25.584Z,1.80
2019-01-13T12:27:53.349Z,2.10
2019-01-13T12:30:25.802Z,1.55
2019-01-13T12:32:53.455Z,1.82
2019-01-13T12:35:21.928Z,2.98
2019-01-13T12:37:49.559Z,1.70
2019-01-13T12:40:18.466Z,1.57
2019-01-13T12:42:46.455Z,1.85
2019-01-13T12:45:15.711Z,1.45
2019-01-13T12:47:43.168Z,1.50
2019-01-13T12:50:13.956Z,1.80
2019-01-13T12:52:41.470Z,2.05
2019-01-13T12:55:09.033Z,1.62
2019-01-13T12:57:36.562Z,1.67
2019-01-13T13:00:05.212Z,1.90
2019-01-13T13:02:32.704Z,2.08
2019-01-13T13:05:00.383Z,1.90
2019-01-13T13:07:28.246Z,1.37
2019-01-13T13:09:56.105Z,4.00
2019-01-13T13:12:23.639Z,1.30
2019-01-13T13:14:51.442Z,1.50
2019-01-13T13:17:19.254Z,1.30
2019-01-13T13:19:47.163Z,1.40
2019-01-13T13:22:14.638Z,1.90
2019-01-13T13:24:42.094Z,1.57
2019-01-13T13:27:09.696Z,1.85
2019-01-13T13:29:37.173Z,2.05
2019-01-13T13:32:04.921Z,1.70
2019-01-13T13:34:32.277Z,1.50
2019-01-13T13:37:11.991Z,1.45
2019-01-13T13:39:39.879Z,1.37
2019-01-13T13:42:07.640Z,1.00
2019-01-13T13:44:35.175Z,2.02
2019-01-13T13:47:02.730Z,1.30
2019-01-13T13:49:30.606Z,1.90
2019-01-13T13:51:58.141Z,1.50
2019-01-13T13:54:25.721Z,2.37
2019-01-13T13:56:53.295Z,2.00
2019-01-13T13:59:20.825Z,3.12
2019-01-13T14:01:48.951Z,3.70
2019-01-13T14:04:17.309Z,2.72
2019-01-13T14:06:45.815Z,2.37
2019-01-13T14:09:14.091Z,1.72
2019-01-13T14:11:42.398Z,2.10
2019-01-13T14:14:10.682Z,2.92
2019-01-13T14:16:38.268Z,2.20
2019-01-13T14:19:05.804Z,2.10
2019-01-13T14:21:33.845Z,2.65
2019-01-13T14:24:01.550Z,2.10
2019-01-13T14:26:29.982Z,2.10
2019-01-13T14:28:57.963Z,2.70
2019-01-13T14:31:25.537Z,2.87
2019-01-13T14:33:53.266Z,2.85
2019-01-13T14:36:21.040Z,3.20
2019-01-13T14:38:48.821Z,2.40
2019-01-13T14:41:16.342Z,2.60
2019-01-13T14:43:43.911Z,3.45
2019-01-13T14:46:11.521Z,4.03
2019-01-13T14:48:38.966Z,4.95
2019-01-13T14:51:06.538Z,4.28
2019-01-13T14:53:34.017Z,4.00
2019-01-13T14:56:01.512Z,4.20
2019-01-13T14:58:29.496Z,6.90
2019-01-13T15:00:57.077Z,8.23
2019-01-13T15:03:27.995Z,5.55
2019-01-13T15:05:55.816Z,6.15
2019-01-13T15:08:23.365Z,5.62
2019-01-13T15:10:50.821Z,6.35
2019-01-13T15:13:18.327Z,6.37
2019-01-13T15:15:45.814Z,4.40
2019-01-13T15:18:13.327Z,4.78
2019-01-13T15:20:40.825Z,4.35
2019-01-13T15:23:08.883Z,4.90
2019-01-13T15:25:36.389Z,5.08
2019-01-13T15:28:03.985Z,3.90
2019-01-13T15:30:35.942Z,4.03
2019-01-13T15:33:04.431Z,4.92
2019-01-13T15:35:32.272Z,4.90
2019-01-13T15:37:59.632Z,4.30
2019-01-13T15:40:27.095Z,4.67
2019-01-13T15:42:54.537Z,4.55
2019-01-13T15:45:22.148Z,5.50
2019-01-13T15:47:49.528Z,4.97
2019-01-13T15:50:19.271Z,5.97
2019-01-13T15:52:46.972Z,8.48
2019-01-13T15:55:15.676Z,6.60
2019-01-13T15:57:43.103Z,6.03
2019-01-13T16:00:13.845Z,5.47
2019-01-13T16:02:41.319Z,5.08
2019-01-13T16:05:08.926Z,5.20
2019-01-13T16:07:36.424Z,5.42
2019-01-13T16:10:06.730Z,6.17
2019-01-13T16:12:34.233Z,5.50
2019-01-13T16:15:02.063Z,5.75
2019-01-13T16:17:29.475Z,6.20
2019-01-13T16:19:57.185Z,5.60
2019-01-13T16:22:24.766Z,5.92
2019-01-13T16:24:52.627Z,5.12
2019-01-13T16:27:20.161Z,4.75
2019-01-13T16:29:47.654Z,5.55
2019-01-13T16:32:15.144Z,5.55
2019-01-13T16:34:42.607Z,6.40
2019-01-13T16:37:10.176Z,5.62
2019-01-13T16:39:38.151Z,6.00
2019-01-13T16:42:05.669Z,6.62
2019-01-13T16:44:33.439Z,7.37
2019-01-13T16:47:00.902Z,7.10
2019-01-13T16:49:28.364Z,5.62
2019-01-13T16:51:55.822Z,7.08
2019-01-13T16:54:23.278Z,6.28
2019-01-13T16:56:50.874Z,6.55
2019-01-13T16:59:18.631Z,6.30
2019-01-13T17:01:46.573Z,6.20
2019-01-13T17:04:14.647Z,7.33
2019-01-13T17:06:43.483Z,8.00
2019-01-13T17:09:11.614Z,7.58
2019-01-13T17:11:39.098Z,8.40
2019-01-13T17:14:06.550Z,7.30
2019-01-13T17:16:33.996Z,8.13
2019-01-13T17:19:01.492Z,8.50
2019-01-13T17:21:29.008Z,9.03
2019-01-13T17:23:56.520Z,8.35
2019-01-13T17:26:23.968Z,8.95
2019-01-13T17:28:51.522Z,10.40
2019-01-13T17:31:19.090Z,8.80
2019-01-13T17:33:46.637Z,8.55
2019-01-13T17:36:14.128Z,8.75
2019-01-13T17:38:41.724Z,9.90
2019-01-13T17:41:09.265Z,8.20
2019-01-13T17:43:36.753Z,7.87
2019-01-13T17:46:04.392Z,8.65
2019-01-13T17:48:31.928Z,8.20
2019-01-13T17:50:59.787Z,8.18
2019-01-13T17:53:27.477Z,8.38
2019-01-13T17:55:54.948Z,10.13
2019-01-13T17:58:22.441Z,9.05
2019-01-13T18:01:14.768Z,8.48
2019-01-13T18:03:44.318Z,10.82
2019-01-13T18:06:11.856Z,8.88
2019-01-13T18:08:39.460Z,10.13
2019-01-13T18:11:07.914Z,9.35
2019-01-13T18:13:35.502Z,9.98
2019-01-13T18:16:03.376Z,10.50
2019-01-13T18:18:30.894Z,9.48
2019-01-13T18:20:58.483Z,9.38
2019-01-13T18:23:26.103Z,10.90
2019-01-13T18:25:53.703Z,11.03
2019-01-13T18:28:21.190Z,9.93
2019-01-13T18:30:48.682Z,9.70
2019-01-13T18:33:16.176Z,7.97
2019-01-13T18:35:43.712Z,7.97
2019-01-13T18:38:11.628Z,7.65
2019-01-13T18:40:39.179Z,9.58
2019-01-13T18:43:06.775Z,9.48
2019-01-13T18:45:34.331Z,7.60
2019-01-13T18:48:01.983Z,8.73
2019-01-13T18:50:29.606Z,8.63
2019-01-13T18:53:03.669Z,8.43
2019-01-13T18:55:31.283Z,7.03
2019-01-13T18:57:59.209Z,8.33
2019-01-13T19:00:27.129Z,7.60
2019-01-13T19:02:55.136Z,6.83
2019-01-13T19:05:23.626Z,8.28
2019-01-13T19:07:51.580Z,8.88
2019-01-13T19:10:26.669Z,11.85
2019-01-13T19:13:36.370Z,13.50
2019-01-13T19:16:04.114Z,16.00
2019-01-13T19:18:31.912Z,17.35
2019-01-13T19:21:02.197Z,14.00
2019-01-13T19:23:29.887Z,9.65
2019-01-13T19:25:57.570Z,10.00
2019-01-13T19:28:25.317Z,9.20
2019-01-13T19:30:53.163Z,9.70
2019-01-13T19:33:21.291Z,7.60
2019-01-13T19:35:48.999Z,9.80
2019-01-13T19:38:16.666Z,12.65
2019-01-13T19:40:44.334Z,11.03
2019-01-13T19:43:11.951Z,11.73
2019-01-13T19:45:39.961Z,11.28
2019-01-13T19:48:09.152Z,12.88
2019-01-13T19:50:37.280Z,11.60
2019-01-13T19:53:05.421Z,11.65
2019-01-13T19:55:33.080Z,13.03
2019-01-13T19:58:05.279Z,12.15
2019-01-13T20:00:37.380Z,21.05
2019-01-13T20:03:06.326Z,38.85
2019-01-13T20:05:33.910Z,52.50
2019-01-13T20:08:01.810Z,36.42
2019-01-13T20:10:29.883Z,18.92
2019-01-13T20:12:57.757Z,19.80
2019-01-13T20:15:25.329Z,18.77
2019-01-13T20:17:52.964Z,16.77
2019-01-13T20:20:20.640Z,8.93
2019-01-13T20:22:48.701Z,3.40
2019-01-13T20:25:16.367Z,3.40
2019-01-13T20:27:44.570Z,2.70
2019-01-13T20:30:14.749Z,2.47
2019-01-13T20:32:42.773Z,3.60
2019-01-13T20:35:10.402Z,4.28
2019-01-13T20:37:37.994Z,5.17
2019-01-13T20:40:06.712Z,8.40
2019-01-13T20:42:34.664Z,9.25
2019-01-13T20:45:02.175Z,11.80
2019-01-13T20:47:29.717Z,14.43
2019-01-13T20:49:57.223Z,12.40
2019-01-13T20:52:24.772Z,13.55
2019-01-13T20:54:52.249Z,9.98
2019-01-13T20:57:20.050Z,11.80
2019-01-13T20:59:47.509Z,21.45
2019-01-13T21:02:15.003Z,13.03
2019-01-13T21:04:42.492Z,9.35
2019-01-13T21:07:09.997Z,13.62
2019-01-13T21:09:37.489Z,10.68
2019-01-13T21:12:04.927Z,11.08
2019-01-13T21:14:32.340Z,10.88
2019-01-13T21:16:59.893Z,13.22
2019-01-13T21:19:27.440Z,11.97
2019-01-13T21:21:54.895Z,15.88
2019-01-13T21:24:22.424Z,12.47
2019-01-13T21:26:49.897Z,9.83
2019-01-13T21:29:17.390Z,8.55
2019-01-13T21:31:44.826Z,5.10
2019-01-13T21:34:12.350Z,7.03
2019-01-13T21:36:39.826Z,12.10
2019-01-13T21:39:08.180Z,12.15
2019-01-13T21:41:35.772Z,15.15
2019-01-13T21:44:03.349Z,16.20
2019-01-13T21:46:30.777Z,23.05
2019-01-13T21:48:58.867Z,24.57
2019-01-13T21:51:26.412Z,25.17
2019-01-13T21:53:53.965Z,24.25
2019-01-13T21:56:21.392Z,24.32
2019-01-13T21:58:48.801Z,16.15
2019-01-13T22:01:16.290Z,8.38
2019-01-13T22:03:43.731Z,2.80
2019-01-13T22:06:11.614Z,1.95
2019-01-13T22:08:39.057Z,1.50
2019-01-13T22:11:06.488Z,1.60
2019-01-13T22:13:33.844Z,0.70
2019-01-13T22:16:01.318Z,1.10
2019-01-13T22:18:28.749Z,1.30
2019-01-13T22:20:56.220Z,1.00
2019-01-13T22:23:23.999Z,0.88
2019-01-13T22:25:51.646Z,1.27
2019-01-13T22:28:19.001Z,1.37
2019-01-13T22:30:47.989Z,0.90
2019-01-13T22:33:15.835Z,0.90
2019-01-13T22:35:48.097Z,0.78
2019-01-13T22:38:12.865Z,0.80
2019-01-13T22:40:40.319Z,0.60
2019-01-13T22:43:08.114Z,1.20
2019-01-13T22:45:35.875Z,1.27
2019-01-13T22:48:03.258Z,1.00
2019-01-13T22:50:30.688Z,1.57
2019-01-13T22:52:58.106Z,1.50
2019-01-13T22:55:25.498Z,1.37
2019-01-13T22:57:52.868Z,1.80
2019-01-13T23:00:44.020Z,3.05
2019-01-13T23:03:11.671Z,2.12
2019-01-13T23:05:39.104Z,1.90
2019-01-13T23:08:06.465Z,1.72
2019-01-13T23:10:33.922Z,1.72
2019-01-13T23:13:01.370Z,2.30
2019-01-13T23:15:28.769Z,4.33
2019-01-13T23:17:56.113Z,3.20
2019-01-13T23:20:23.447Z,2.50
2019-01-13T23:22:51.102Z,2.70
2019-01-13T23:25:18.496Z,2.50
2019-01-13T23:27:45.958Z,2.15
2019-01-13T23:30:13.386Z,3.65
2019-01-13T23:32:41.042Z,2.37
2019-01-13T23:35:08.562Z,2.00
2019-01-13T23:37:35.975Z,2.60
2019-01-13T23:40:03.924Z,3.05
2019-01-13T23:42:31.579Z,2.45
2019-01-13T23:44:59.061Z,1.77
2019-01-13T23:47:26.503Z,1.80
2019-01-13T23:49:53.811Z,1.60
2019-01-13T23:52:21.206Z,1.50
2019-01-13T23:54:48.903Z,4.45
2019-01-13T23:57:16.340Z,2.20
2019-01-13T23:59:43.770Z,2.10
